Time;durP1;ratioP1;P1;durP2;ratioP2;P2;SDS_P1;SDS_P2;PMS_P1;PMS_P2;Temp;Humidity;BMP_temperature;BMP_pressure;BME280_temperature;BME280_humidity;BME280_pressure;Samples;Min_cycle;Max_cycle;Signal;HPM_P1;HPM_P2
2023/12/14 00:01:46;;;;;;;19.83;10.45;;;;;;;;;;6119283;23;20359;-80
2023/12/14 00:04:11;;;;;;;20.13;10.45;;;;;;;;;;6094221;23;20009;-81
2023/12/14 00:06:37;;;;;;;22.65;10.85;;;;;;;;;;6096392;23;20551;-81
2023/12/14 00:09:02;;;;;;;20.00;10.68;;;;;;;;;;6077391;23;20029;-82
2023/12/14 00:11:27;;;;;;;20.63;10.73;;;;;;;;;;6095908;23;20013;-81
2023/12/14 00:13:53;;;;;;;22.58;11.07;;;;;;;;;;6077502;23;20040;-81
2023/12/14 00:16:18;;;;;;;22.45;11.68;;;;;;;;;;6075076;23;20065;-81
2023/12/14 00:18:43;;;;;;;22.52;11.63;;;;;;;;;;6096318;23;20040;-81
2023/12/14 00:21:09;;;;;;;23.08;11.10;;;;;;;;;;6109015;23;20025;-80
2023/12/14 00:23:34;;;;;;;22.88;11.48;;;;;;;;;;6070656;23;20527;-81
2023/12/14 00:26:00;;;;;;;21.30;11.65;;;;;;;;;;6108728;23;20014;-80
2023/12/14 00:28:25;;;;;;;22.98;11.65;;;;;;;;;;6120657;23;20464;-81
2023/12/14 00:30:50;;;;;;;21.45;11.23;;;;;;;;;;6096490;23;20009;-81
2023/12/14 00:33:16;;;;;;;21.02;11.18;;;;;;;;;;6056897;23;20018;-80
2023/12/14 00:35:41;;;;;;;20.80;11.43;;;;;;;;;;6095687;23;20014;-80
2023/12/14 00:38:06;;;;;;;22.65;11.40;;;;;;;;;;6063813;23;20022;-80
2023/12/14 00:40:35;;;;;;;23.67;11.85;;;;;;;;;;6090234;23;20025;-82
2023/12/14 00:43:00;;;;;;;23.00;12.15;;;;;;;;;;6080782;23;20017;-79
2023/12/14 00:45:26;;;;;;;23.48;11.90;;;;;;;;;;6090837;23;20028;-82
2023/12/14 00:47:51;;;;;;;26.45;13.13;;;;;;;;;;6069958;23;20112;-82
2023/12/14 00:50:16;;;;;;;22.88;11.73;;;;;;;;;;6091563;23;20032;-81
2023/12/14 00:52:42;;;;;;;25.88;12.18;;;;;;;;;;6078130;23;20055;-82
2023/12/14 00:55:17;;;;;;;24.40;12.35;;;;;;;;;;6086615;23;20146;-80
2023/12/14 00:57:42;;;;;;;26.75;13.30;;;;;;;;;;6082350;23;20014;-81
2023/12/14 01:00:10;;;;;;;27.40;12.48;;;;;;;;;;6090500;23;20025;-81
2023/12/14 01:02:35;;;;;;;;;;;;;;;;;;6093547;23;20348;-80
2023/12/14 01:05:01;;;;;;;26.00;11.80;;;;;;;;;;6092498;23;19919;-81
2023/12/14 01:07:39;;;;;;;25.98;12.02;;;;;;;;;;6091442;23;20010;-81
2023/12/14 01:10:06;;;;;;;26.55;12.43;;;;;;;;;;6115659;23;20104;-81
2023/12/14 01:12:32;;;;;;;23.75;11.48;;;;;;;;;;6107483;23;20435;-81
2023/12/14 01:14:57;;;;;;;25.60;12.10;;;;;;;;;;6091317;23;20018;-82
2023/12/14 01:17:22;;;;;;;23.85;12.30;;;;;;;;;;6090293;23;20036;-81
2023/12/14 01:19:48;;;;;;;27.05;12.35;;;;;;;;;;6090986;23;20010;-81
2023/12/14 01:22:17;;;;;;;28.55;12.85;;;;;;;;;;6115979;23;20096;-81
2023/12/14 01:24:42;;;;;;;28.05;12.52;;;;;;;;;;6117381;23;20456;-81
2023/12/14 01:27:09;;;;;;;27.98;13.05;;;;;;;;;;6116232;23;20112;-81
2023/12/14 01:29:35;;;;;;;;;;;;;;;;;;6118322;23;20500;-81
2023/12/14 01:32:00;;;;;;;26.13;12.00;;;;;;;;;;6104469;23;19937;-81
2023/12/14 01:34:28;;;;;;;27.23;12.65;;;;;;;;;;6104550;23;20092;-81
2023/12/14 01:37:14;;;;;;;26.83;12.63;;;;;;;;;;6115964;23;20009;-81
2023/12/14 01:39:39;;;;;;;23.25;11.70;;;;;;;;;;6012063;23;20014;-81
2023/12/14 01:42:05;;;;;;;23.58;12.05;;;;;;;;;;6009451;23;20523;-81
2023/12/14 01:44:33;;;;;;;22.00;10.85;;;;;;;;;;6010828;23;20022;-81
2023/12/14 01:47:01;;;;;;;19.60;10.30;;;;;;;;;;5994218;23;20027;-81
2023/12/14 01:49:26;;;;;;;;;;;;;;;;;;6014247;23;20029;-81
2023/12/14 01:51:51;;;;;;;22.10;10.88;;;;;;;;;;6047991;23;19913;-81
2023/12/14 01:54:17;;;;;;;20.83;10.30;;;;;;;;;;6038478;23;20045;-81
2023/12/14 01:56:42;;;;;;;18.73;10.00;;;;;;;;;;6038010;23;20023;-81
2023/12/14 01:59:07;;;;;;;21.02;10.73;;;;;;;;;;6025454;23;20018;-81
2023/12/14 02:02:01;;;;;;;20.88;10.18;;;;;;;;;;6037733;23;20022;-81
2023/12/14 02:04:26;;;;;;;18.17;9.70;;;;;;;;;;6060778;23;20018;-81
2023/12/14 02:06:52;;;;;;;16.95;9.18;;;;;;;;;;6049908;23;20041;-81
2023/12/14 02:09:17;;;;;;;21.02;10.38;;;;;;;;;;6037942;23;20042;-82
2023/12/14 02:11:43;;;;;;;22.13;9.60;;;;;;;;;;6038181;23;20367;-81
2023/12/14 02:14:09;;;;;;;17.75;9.70;;;;;;;;;;6038065;23;20025;-81
2023/12/14 02:16:35;;;;;;;18.73;9.70;;;;;;;;;;6049376;23;20018;-81
2023/12/14 02:19:06;;;;;;;16.05;9.20;;;;;;;;;;6089677;23;20078;-81
2023/12/14 02:21:32;;;;;;;15.68;8.50;;;;;;;;;;6044435;23;20025;-82
2023/12/14 02:23:57;;;;;;;17.25;9.07;;;;;;;;;;6034543;23;20015;-81
2023/12/14 02:26:23;;;;;;;16.60;8.73;;;;;;;;;;6026172;23;20034;-81
2023/12/14 02:28:48;;;;;;;16.25;8.35;;;;;;;;;;6071787;23;20579;-82
2023/12/14 02:31:14;;;;;;;14.20;7.90;;;;;;;;;;6045336;23;20042;-81
2023/12/14 02:33:39;;;;;;;14.20;8.00;;;;;;;;;;6033542;23;20018;-81
2023/12/14 02:36:05;;;;;;;15.98;8.40;;;;;;;;;;6044650;23;20030;-81
2023/12/14 02:38:31;;;;;;;15.07;8.20;;;;;;;;;;6055871;23;20476;-81
2023/12/14 02:40:56;;;;;;;14.45;8.27;;;;;;;;;;6062576;23;20029;-81
2023/12/14 02:43:42;;;;;;;15.68;8.38;;;;;;;;;;6050984;23;20054;-81
2023/12/14 02:46:08;;;;;;;13.70;7.60;;;;;;;;;;6060886;23;20121;-81
2023/12/14 02:48:34;;;;;;;14.98;7.82;;;;;;;;;;6062908;23;20026;-81
2023/12/14 02:51:00;;;;;;;14.00;7.72;;;;;;;;;;6028914;23;20456;-81
2023/12/14 02:53:25;;;;;;;16.65;8.05;;;;;;;;;;6038219;23;20057;-81
2023/12/14 02:55:51;;;;;;;15.82;8.52;;;;;;;;;;6054938;23;20421;-81
2023/12/14 02:58:16;;;;;;;16.58;8.57;;;;;;;;;;6059665;23;20789;-82
2023/12/14 03:00:42;;;;;;;17.83;9.48;;;;;;;;;;6022803;23;20018;-82
2023/12/14 03:03:10;;;;;;;18.95;9.10;;;;;;;;;;6009829;23;20070;-81
2023/12/14 03:05:36;;;;;;;19.55;10.25;;;;;;;;;;6058791;23;20685;-81
2023/12/14 03:08:01;;;;;;;15.82;9.45;;;;;;;;;;6086152;23;20025;-82
2023/12/14 03:10:26;;;;;;;18.52;9.48;;;;;;;;;;6037882;23;20022;-81
2023/12/14 03:12:52;;;;;;;20.33;10.02;;;;;;;;;;6007783;23;20027;-81
2023/12/14 03:15:18;;;;;;;18.25;9.70;;;;;;;;;;6039416;23;20509;-81
2023/12/14 03:17:44;;;;;;;20.33;10.40;;;;;;;;;;5997523;23;20081;-81
2023/12/14 03:20:10;;;;;;;21.08;9.77;;;;;;;;;;6033027;23;20050;-81
2023/12/14 03:22:35;;;;;;;20.17;10.25;;;;;;;;;;6044345;23;20014;-81
2023/12/14 03:25:04;;;;;;;18.13;10.30;;;;;;;;;;6051695;23;20018;-81
2023/12/14 03:27:29;;;;;;;21.02;11.32;;;;;;;;;;6061791;23;20069;-81
2023/12/14 03:29:55;;;;;;;20.15;10.60;;;;;;;;;;6086932;23;20018;-81
2023/12/14 03:32:20;;;;;;;18.55;9.70;;;;;;;;;;6060286;23;20017;-81
2023/12/14 03:34:45;;;;;;;20.67;10.43;;;;;;;;;;6063645;23;20006;-81
2023/12/14 03:37:11;;;;;;;19.95;10.30;;;;;;;;;;6086821;23;20022;-81
2023/12/14 03:39:37;;;;;;;21.38;10.68;;;;;;;;;;6063550;23;20014;-81
2023/12/14 03:42:02;;;;;;;22.73;10.63;;;;;;;;;;6063005;23;20049;-81
2023/12/14 03:44:27;;;;;;;23.08;10.80;;;;;;;;;;6073433;23;20015;-81
2023/12/14 03:46:54;;;;;;;19.73;10.95;;;;;;;;;;6058914;23;20052;-81
2023/12/14 03:49:19;;;;;;;22.55;11.23;;;;;;;;;;6063000;23;20085;-80
2023/12/14 03:51:44;;;;;;;22.17;10.93;;;;;;;;;;6087547;23;20014;-81
2023/12/14 03:54:10;;;;;;;20.30;10.38;;;;;;;;;;6084274;23;20464;-81
2023/12/14 03:56:53;;;;;;;21.95;10.55;;;;;;;;;;6080649;23;20069;-81
2023/12/14 03:59:19;;;;;;;22.75;11.27;;;;;;;;;;6065761;23;20461;-81
2023/12/14 04:01:44;;;;;;;23.77;11.15;;;;;;;;;;6077040;23;20013;-82
2023/12/14 04:04:10;;;;;;;22.00;10.57;;;;;;;;;;6062304;23;20006;-81
2023/12/14 04:06:35;;;;;;;23.52;10.57;;;;;;;;;;6090986;23;20022;-81
2023/12/14 04:09:00;;;;;;;21.98;10.23;;;;;;;;;;6075979;23;20084;-81
2023/12/14 04:11:29;;;;;;;21.27;10.52;;;;;;;;;;6079111;23;20021;-81
2023/12/14 04:13:55;;;;;;;21.45;10.98;;;;;;;;;;6066594;23;20022;-82
2023/12/14 04:16:21;;;;;;;20.52;10.90;;;;;;;;;;6075512;23;20531;-81
2023/12/14 04:18:51;;;;;;;21.90;10.82;;;;;;;;;;6076900;23;20006;-80
2023/12/14 04:21:16;;;;;;;22.67;11.15;;;;;;;;;;6065534;23;20414;-81
2023/12/14 04:23:42;;;;;;;22.70;11.18;;;;;;;;;;6063817;23;20018;-81
2023/12/14 04:26:09;;;;;;;20.83;10.98;;;;;;;;;;6063899;23;20037;-81
2023/12/14 04:28:35;;;;;;;21.65;10.40;;;;;;;;;;6069044;23;20045;-81
2023/12/14 04:31:00;;;;;;;20.63;10.35;;;;;;;;;;6077297;23;20127;-81
2023/12/14 04:33:25;;;;;;;20.17;10.20;;;;;;;;;;6075403;23;20392;-81
2023/12/14 04:35:51;;;;;;;16.92;8.82;;;;;;;;;;6076112;23;20074;-81
2023/12/14 04:38:19;;;;;;;19.90;9.70;;;;;;;;;;6077786;23;20032;-81
2023/12/14 04:40:44;;;;;;;16.83;8.80;;;;;;;;;;6099530;23;20717;-81
2023/12/14 04:43:10;;;;;;;16.08;8.05;;;;;;;;;;6078658;23;20014;-81
2023/12/14 04:45:38;;;;;;;16.95;9.23;;;;;;;;;;6073981;23;20626;-81
2023/12/14 04:48:04;;;;;;;15.93;8.48;;;;;;;;;;6081091;23;20480;-81
2023/12/14 04:50:29;;;;;;;16.92;9.20;;;;;;;;;;6101558;23;20012;-81
2023/12/14 04:52:55;;;;;;;16.13;8.25;;;;;;;;;;6045238;23;21449;-84
2023/12/14 04:55:20;;;;;;;16.38;8.27;;;;;;;;;;6078873;23;20466;-85
2023/12/14 04:58:28;;;;;;;19.67;9.68;;;;;;;;;;6093780;23;20025;-85
2023/12/14 05:00:54;;;;;;;17.80;8.70;;;;;;;;;;6021953;23;20503;-84
2023/12/14 05:03:22;;;;;;;17.70;9.15;;;;;;;;;;6019047;23;20014;-85
2023/12/14 05:05:48;;;;;;;15.77;8.50;;;;;;;;;;6062620;23;20022;-85
2023/12/14 05:08:14;;;;;;;17.88;9.63;;;;;;;;;;6091102;23;20100;-85
2023/12/14 05:10:42;;;;;;;25.20;12.95;;;;;;;;;;6045679;23;20018;-85
2023/12/14 05:13:35;;;;;;;67.60;23.92;;;;;;;;;;6049995;23;20018;-86
2023/12/14 05:16:00;;;;;;;27.20;11.63;;;;;;;;;;6063072;23;20490;-86
2023/12/14 05:18:32;;;;;;;24.52;10.10;;;;;;;;;;6061531;23;20025;-88
2023/12/14 05:21:00;;;;;;;23.23;10.25;;;;;;;;;;6064514;23;20075;-87
2023/12/14 05:24:06;;;;;;;20.77;10.88;;;;;;;;;;6056599;23;20049;-85
2023/12/14 05:26:32;;;;;;;21.42;9.88;;;;;;;;;;6098985;23;20054;-81
2023/12/14 05:28:57;;;;;;;20.75;9.43;;;;;;;;;;6115587;23;20018;-82
2023/12/14 05:31:25;;;;;;;21.02;9.40;;;;;;;;;;6094990;23;20018;-81
2023/12/14 05:33:51;;;;;;;17.15;9.57;;;;;;;;;;6115573;23;20018;-82
2023/12/14 05:36:16;;;;;;;21.13;9.63;;;;;;;;;;6054029;23;20528;-86
2023/12/14 05:38:42;;;;;;;19.65;9.82;;;;;;;;;;6102468;23;20797;-86
2023/12/14 05:41:10;;;;;;;17.15;9.05;;;;;;;;;;6081405;23;20038;-86
2023/12/14 05:43:36;;;;;;;;;;;;;;;;;;6071852;23;20131;-85
2023/12/14 05:46:04;;;;;;;17.35;9.68;;;;;;;;;;6043791;23;20131;-87
2023/12/14 05:48:54;;;;;;;21.25;9.85;;;;;;;;;;6076219;23;20457;-86
2023/12/14 05:51:51;;;;;;;18.88;9.20;;;;;;;;;;6011597;23;20689;-87
2023/12/14 05:54:27;;;;;;;19.33;9.38;;;;;;;;;;6010852;23;20022;-86
2023/12/14 05:56:52;;;;;;;16.42;8.65;;;;;;;;;;6000155;23;20164;-86
2023/12/14 05:59:37;;;;;;;18.38;9.48;;;;;;;;;;6035297;23;20034;-87
2023/12/14 06:02:18;;;;;;;18.38;9.02;;;;;;;;;;6046453;23;20468;-86
2023/12/14 06:05:02;;;;;;;;;;;;;;;;;;;;;
2023/12/14 06:11:36;;;;;;;14.93;8.55;;;;;;;;;;6077016;23;20037;-85
2023/12/14 06:18:26;;;;;;;17.88;9.00;;;;;;;;;;6021201;23;20470;-87
2023/12/14 06:20:27;;;;;;;19.92;8.88;;;;;;;;;;6050697;23;20441;-85
2023/12/14 06:22:52;;;;;;;18.52;9.02;;;;;;;;;;6080357;23;20080;-84
2023/12/14 06:25:50;;;;;;;16.50;8.93;;;;;;;;;;6050427;23;20027;-85
2023/12/14 06:28:51;;;;;;;16.80;8.90;;;;;;;;;;6013346;23;20487;-85
2023/12/14 06:34:17;;;;;;;18.75;8.73;;;;;;;;;;6071901;23;20027;-84
2023/12/14 06:36:47;;;;;;;16.90;8.68;;;;;;;;;;6032579;23;20014;-86
2023/12/14 06:39:59;;;;;;;;;;;;;;;;;;;;;
2023/12/14 06:42:27;;;;;;;14.15;8.18;;;;;;;;;;6079376;23;20014;-85
2023/12/14 06:45:00;;;;;;;17.13;8.57;;;;;;;;;;6023502;23;20029;-83
2023/12/14 06:47:31;;;;;;;14.98;9.07;;;;;;;;;;6086163;23;20030;-84
2023/12/14 06:50:40;;;;;;;15.90;9.45;;;;;;;;;;6052701;23;20031;-85
2023/12/14 06:53:06;;;;;;;13.82;8.00;;;;;;;;;;6050302;23;20025;-83
2023/12/14 06:55:31;;;;;;;14.10;8.13;;;;;;;;;;6054745;23;20448;-84
2023/12/14 07:00:55;;;;;;;;;;;;;;;;;;;;;
2023/12/14 07:03:24;;;;;;;14.18;8.27;;;;;;;;;;6096592;23;20400;-84
2023/12/14 07:05:50;;;;;;;13.95;8.27;;;;;;;;;;6076680;23;20026;-84
2023/12/14 07:08:27;;;;;;;17.08;8.43;;;;;;;;;;6081285;23;20474;-84
2023/12/14 07:10:52;;;;;;;14.38;8.40;;;;;;;;;;6077393;23;20029;-84
2023/12/14 07:13:23;;;;;;;13.73;7.65;;;;;;;;;;6046850;23;20400;-83
2023/12/14 07:15:51;;;;;;;14.52;8.38;;;;;;;;;;6071975;23;20014;-84
2023/12/14 07:18:17;;;;;;;12.52;8.05;;;;;;;;;;6082384;23;20704;-84
2023/12/14 07:20:42;;;;;;;12.07;7.40;;;;;;;;;;6091239;23;20018;-84
2023/12/14 07:23:11;;;;;;;12.93;7.82;;;;;;;;;;6075602;23;20079;-84
2023/12/14 07:25:36;;;;;;;11.95;7.43;;;;;;;;;;6078240;23;20014;-84
2023/12/14 07:28:04;;;;;;;13.35;7.88;;;;;;;;;;6078602;23;20472;-85
2023/12/14 07:30:33;;;;;;;14.85;7.88;;;;;;;;;;6095884;23;20020;-84
2023/12/14 07:33:04;;;;;;;12.40;7.65;;;;;;;;;;6111936;23;20022;-84
2023/12/14 07:35:30;;;;;;;12.63;8.10;;;;;;;;;;6105364;23;20084;-84
2023/12/14 07:37:55;;;;;;;13.52;8.07;;;;;;;;;;6046045;23;20451;-85
2023/12/14 07:40:21;;;;;;;14.70;7.85;;;;;;;;;;6092696;23;20075;-85
2023/12/14 07:42:46;;;;;;;13.23;8.35;;;;;;;;;;6090020;23;20020;-84
2023/12/14 07:45:12;;;;;;;14.65;8.70;;;;;;;;;;6077645;23;20061;-84
2023/12/14 07:47:37;;;;;;;14.10;8.02;;;;;;;;;;6096588;23;20052;-85
2023/12/14 07:50:15;;;;;;;13.85;8.43;;;;;;;;;;6050504;23;20017;-84
2023/12/14 07:52:41;;;;;;;12.65;7.68;;;;;;;;;;6062851;23;20076;-84
2023/12/14 07:55:07;;;;;;;14.15;8.15;;;;;;;;;;6062539;23;20026;-87
2023/12/14 07:58:13;;;;;;;14.18;9.00;;;;;;;;;;6033187;23;20041;-83
2023/12/14 08:00:39;;;;;;;13.85;8.68;;;;;;;;;;5943717;23;20472;-84
2023/12/14 08:06:43;;;;;;;14.85;8.50;;;;;;;;;;5933642;23;20030;-84
2023/12/14 08:09:26;;;;;;;;;;;;;;;;;;5925647;23;20100;-82
2023/12/14 08:12:00;;;;;;;16.25;8.90;;;;;;;;;;5917312;23;19947;-82
2023/12/14 08:14:45;;;;;;;15.73;9.05;;;;;;;;;;5904460;23;20081;-81
2023/12/14 08:21:14;;;;;;;15.40;9.77;;;;;;;;;;5894666;24;20078;-84
2023/12/14 08:30:51;;;;;;;17.08;10.18;;;;;;;;;;5893919;24;20347;-84
2023/12/14 08:43:55;;;;;;;17.13;9.80;;;;;;;;;;5908903;24;20055;-84
2023/12/14 08:50:18;;;;;;;18.92;10.88;;;;;;;;;;5879534;24;20025;-85
2023/12/14 09:10:44;;;;;;;17.15;10.35;;;;;;;;;;5809962;24;72612;-85
2023/12/14 09:23:44;;;;;;;18.02;10.73;;;;;;;;;;5707076;24;20088;-85
2023/12/14 09:26:10;;;;;;;16.90;10.82;;;;;;;;;;5763168;24;20027;-84
2023/12/14 09:32:23;;;;;;;17.23;10.48;;;;;;;;;;5737333;24;20023;-85
2023/12/14 09:35:43;;;;;;;;;;;;;;;;;;;;;
2023/12/14 09:38:31;;;;;;;18.95;10.93;;;;;;;;;;5747764;24;20534;-85
2023/12/14 09:41:30;;;;;;;17.67;10.95;;;;;;;;;;5750886;24;20097;-85
2023/12/14 09:43:56;;;;;;;18.20;10.85;;;;;;;;;;5852874;24;20542;-84
2023/12/14 09:46:23;;;;;;;19.00;10.50;;;;;;;;;;5845185;24;20025;-83
2023/12/14 09:48:52;;;;;;;18.08;10.85;;;;;;;;;;5891037;24;20085;-85
2023/12/14 09:51:18;;;;;;;17.70;10.32;;;;;;;;;;5893064;24;20412;-85
2023/12/14 09:53:50;;;;;;;18.15;10.43;;;;;;;;;;5910705;23;20076;-85
2023/12/14 09:56:45;;;;;;;17.75;10.13;;;;;;;;;;5946754;23;20541;-85
2023/12/14 09:59:11;;;;;;;17.33;10.60;;;;;;;;;;5911232;23;20030;-85
2023/12/14 10:02:02;;;;;;;18.55;10.85;;;;;;;;;;6002550;23;20023;-84
2023/12/14 10:04:28;;;;;;;17.45;11.13;;;;;;;;;;6046206;23;20017;-84
2023/12/14 10:06:55;;;;;;;19.42;11.25;;;;;;;;;;6052402;23;20427;-85
2023/12/14 10:10:13;;;;;;;17.73;11.48;;;;;;;;;;6057171;23;20025;-86
2023/12/14 10:12:54;;;;;;;18.60;11.50;;;;;;;;;;6045348;23;20025;-85
2023/12/14 10:25:40;;;;;;;20.48;11.55;;;;;;;;;;5945561;23;20047;-85
2023/12/14 10:28:40;;;;;;;19.50;10.82;;;;;;;;;;5921152;23;20021;-86
2023/12/14 10:31:09;;;;;;;22.70;11.07;;;;;;;;;;5922111;23;20027;-86
2023/12/14 10:36:56;;;;;;;19.98;11.98;;;;;;;;;;5882518;23;20554;-86
2023/12/14 10:43:00;;;;;;;17.00;10.27;;;;;;;;;;5919472;24;20126;-85
2023/12/14 10:46:00;;;;;;;17.48;10.27;;;;;;;;;;5875419;24;20366;-86
2023/12/14 10:48:43;;;;;;;14.75;10.13;;;;;;;;;;5857168;24;20061;-86
2023/12/14 10:51:11;;;;;;;16.63;10.65;;;;;;;;;;5896843;24;20365;-86
2023/12/14 10:54:24;;;;;;;16.73;9.93;;;;;;;;;;5875816;24;20691;-86
2023/12/14 10:56:59;;;;;;;16.08;10.32;;;;;;;;;;5922209;23;20015;-84
2023/12/14 11:02:49;;;;;;;15.82;10.02;;;;;;;;;;5946417;23;20076;-85
2023/12/14 11:05:42;;;;;;;16.42;10.02;;;;;;;;;;5984722;23;20121;-85
2023/12/14 11:08:11;;;;;;;15.93;10.13;;;;;;;;;;6097619;23;20018;-84
2023/12/14 11:10:52;;;;;;;15.35;9.68;;;;;;;;;;6023236;23;20452;-84
2023/12/14 11:13:17;;;;;;;15.00;10.00;;;;;;;;;;6063110;23;20538;-86
2023/12/14 11:15:50;;;;;;;17.98;9.98;;;;;;;;;;6042035;23;20014;-84
2023/12/14 11:18:16;;;;;;;15.25;9.88;;;;;;;;;;6073739;23;20022;-85
2023/12/14 11:20:44;;;;;;;14.57;9.50;;;;;;;;;;6115245;23;20021;-84
2023/12/14 11:23:10;;;;;;;16.25;9.65;;;;;;;;;;6111653;23;20025;-85
2023/12/14 11:25:37;;;;;;;15.23;9.30;;;;;;;;;;6115935;23;20049;-84
2023/12/14 11:28:07;;;;;;;15.30;9.27;;;;;;;;;;6066399;23;20018;-85
2023/12/14 11:30:33;;;;;;;14.88;9.57;;;;;;;;;;6074588;23;20014;-84
2023/12/14 11:32:59;;;;;;;13.60;8.48;;;;;;;;;;6014965;23;20514;-86
2023/12/14 12:05:28;;;;;;;17.17;10.13;;;;;;;;;;6094823;23;20053;-88
2023/12/14 12:07:59;;;;;;;15.45;9.85;;;;;;;;;;6068293;23;20029;-88
2023/12/14 12:11:21;;;;;;;;;;;;;;;;;;;;;
2023/12/14 12:13:55;;;;;;;15.88;9.98;;;;;;;;;;6016261;23;20723;-87
2023/12/14 12:35:03;;;;;;;18.33;10.80;;;;;;;;;;5899872;24;20596;-87
2023/12/14 12:38:19;;;;;;;;;;;;;;;;;;;;;
2023/12/14 12:58:10;;;;;;;15.90;10.45;;;;;;;;;;6065607;23;21252;-87
2023/12/14 13:04:23;;;;;;;18.65;11.13;;;;;;;;;;6117017;23;20016;-86
2023/12/14 13:06:55;;;;;;;16.30;10.23;;;;;;;;;;5998581;23;20030;-86
2023/12/14 13:09:50;;;;;;;16.45;10.80;;;;;;;;;;6021990;23;20022;-86
2023/12/14 13:12:19;;;;;;;14.30;9.45;;;;;;;;;;6034032;23;20022;-88
2023/12/14 13:18:15;;;;;;;16.98;10.40;;;;;;;;;;6129149;23;20532;-87
2023/12/14 13:21:07;;;;;;;15.30;10.07;;;;;;;;;;6025906;23;20035;-87
2023/12/14 13:23:56;;;;;;;15.20;9.30;;;;;;;;;;6043250;23;20022;-87
2023/12/14 13:26:22;;;;;;;17.10;10.60;;;;;;;;;;6039961;23;20466;-87
2023/12/14 13:28:56;;;;;;;17.10;10.55;;;;;;;;;;6087825;23;20052;-87
2023/12/14 13:31:42;;;;;;;17.40;11.13;;;;;;;;;;6055464;23;20076;-86
2023/12/14 13:34:07;;;;;;;16.92;11.18;;;;;;;;;;6074622;23;20021;-87
2023/12/14 13:36:33;;;;;;;18.35;11.32;;;;;;;;;;6065848;23;20009;-87
2023/12/14 13:38:59;;;;;;;17.38;10.95;;;;;;;;;;6120063;23;20100;-86
2023/12/14 13:41:24;;;;;;;18.40;11.52;;;;;;;;;;6092676;23;20057;-85
2023/12/14 13:43:51;;;;;;;18.83;11.73;;;;;;;;;;6070543;23;20013;-86
2023/12/14 13:46:17;;;;;;;22.38;12.63;;;;;;;;;;6097446;23;20015;-86
2023/12/14 13:48:42;;;;;;;19.52;11.23;;;;;;;;;;6086047;23;20017;-86
2023/12/14 13:51:15;;;;;;;19.17;12.13;;;;;;;;;;6096409;23;20020;-85
2023/12/14 13:53:43;;;;;;;19.83;12.50;;;;;;;;;;6045558;23;20454;-85
2023/12/14 13:56:09;;;;;;;19.40;12.40;;;;;;;;;;6041071;23;20434;-86
2023/12/14 13:59:20;;;;;;;20.80;12.57;;;;;;;;;;6082912;23;20129;-85
2023/12/14 14:01:45;;;;;;;20.00;12.60;;;;;;;;;;6098883;23;20020;-85
2023/12/14 14:04:10;;;;;;;19.65;11.65;;;;;;;;;;6069573;23;20361;-85
2023/12/14 14:06:43;;;;;;;20.05;12.85;;;;;;;;;;6068591;23;20033;-86
2023/12/14 14:09:08;;;;;;;19.52;11.88;;;;;;;;;;6083474;23;20072;-85
2023/12/14 14:11:35;;;;;;;20.83;12.80;;;;;;;;;;6052238;23;20022;-86
2023/12/14 14:14:29;;;;;;;19.05;12.43;;;;;;;;;;6088292;23;20010;-86
2023/12/14 14:16:54;;;;;;;20.30;12.48;;;;;;;;;;6095538;23;20100;-86
2023/12/14 14:19:22;;;;;;;19.08;11.93;;;;;;;;;;6085369;23;20100;-85
2023/12/14 14:21:48;;;;;;;20.67;12.32;;;;;;;;;;6066870;23;20021;-85
2023/12/14 14:24:13;;;;;;;21.15;13.02;;;;;;;;;;6047656;23;20084;-86
2023/12/14 14:26:39;;;;;;;20.38;12.70;;;;;;;;;;6058266;23;20021;-84
2023/12/14 14:29:04;;;;;;;20.58;12.52;;;;;;;;;;6096352;23;20029;-85
2023/12/14 14:31:32;;;;;;;20.63;12.32;;;;;;;;;;6096855;23;20022;-85
2023/12/14 14:37:57;;;;;;;19.48;12.80;;;;;;;;;;6010818;23;20479;-86
2023/12/14 14:41:00;;;;;;;18.95;10.93;;;;;;;;;;6025232;23;20018;-85
2023/12/14 14:43:29;;;;;;;21.52;12.05;;;;;;;;;;6004999;23;20178;-85
2023/12/14 14:45:58;;;;;;;18.10;11.52;;;;;;;;;;6010805;23;20044;-86
2023/12/14 14:51:18;;;;;;;16.90;10.80;;;;;;;;;;5947909;23;20026;-85
2023/12/14 14:53:43;;;;;;;17.50;11.10;;;;;;;;;;6043464;23;20029;-86
2023/12/14 14:56:47;;;;;;;18.67;11.52;;;;;;;;;;6052036;23;20029;-85
2023/12/14 15:02:34;;;;;;;17.98;10.95;;;;;;;;;;5803782;24;20025;-84
2023/12/14 15:08:13;;;;;;;19.13;11.43;;;;;;;;;;5909212;23;20031;-87
2023/12/14 15:10:39;;;;;;;;;;;;;;;;;;5996702;23;20602;-86
2023/12/14 15:13:07;;;;;;;16.60;10.15;;;;;;;;;;5987210;23;19913;-87
2023/12/14 15:15:38;;;;;;;17.20;10.55;;;;;;;;;;5943126;23;20615;-85
2023/12/14 15:18:41;;;;;;;16.15;10.18;;;;;;;;;;5888338;23;20039;-86
2023/12/14 15:21:10;;;;;;;17.38;11.23;;;;;;;;;;5899769;23;20478;-85
2023/12/14 15:23:36;;;;;;;16.00;10.45;;;;;;;;;;5949648;23;20019;-85
2023/12/14 15:26:01;;;;;;;17.40;11.35;;;;;;;;;;5949064;23;20034;-86
2023/12/14 15:28:33;;;;;;;18.35;10.93;;;;;;;;;;5970883;23;20434;-85
2023/12/14 15:30:59;;;;;;;17.83;11.32;;;;;;;;;;5934889;23;20025;-86
2023/12/14 15:34:02;;;;;;;16.90;11.00;;;;;;;;;;5907697;23;20466;-86
2023/12/14 15:36:33;;;;;;;20.38;12.35;;;;;;;;;;5882664;23;20435;-86
2023/12/14 15:38:59;;;;;;;20.60;11.60;;;;;;;;;;5996940;23;20113;-86
2023/12/14 15:41:42;;;;;;;20.45;12.20;;;;;;;;;;6087208;23;20045;-85
2023/12/14 15:44:07;;;;;;;20.02;11.50;;;;;;;;;;6131658;23;20017;-86
2023/12/14 15:46:42;;;;;;;21.27;12.77;;;;;;;;;;6049161;23;20436;-86
2023/12/14 15:49:16;;;;;;;18.75;11.35;;;;;;;;;;6060869;23;20026;-84
2023/12/14 15:51:42;;;;;;;17.33;11.40;;;;;;;;;;6058135;23;20128;-84
2023/12/14 15:54:07;;;;;;;16.20;10.38;;;;;;;;;;6062284;23;20463;-84
2023/12/14 15:56:36;;;;;;;18.20;10.98;;;;;;;;;;6096898;23;20471;-84
2023/12/14 15:59:01;;;;;;;16.58;10.02;;;;;;;;;;6091443;23;20026;-84
2023/12/14 16:01:26;;;;;;;17.35;10.02;;;;;;;;;;6115753;23;20071;-84
2023/12/14 16:03:57;;;;;;;17.38;10.55;;;;;;;;;;6092122;23;20029;-84
2023/12/14 16:06:26;;;;;;;15.45;10.00;;;;;;;;;;6058370;23;20021;-84
2023/12/14 16:08:51;;;;;;;15.43;10.00;;;;;;;;;;6066943;23;20014;-84
2023/12/14 16:11:17;;;;;;;17.35;9.82;;;;;;;;;;6090435;23;20021;-85
2023/12/14 16:13:42;;;;;;;16.02;9.85;;;;;;;;;;6069229;23;20013;-84
2023/12/14 16:16:08;;;;;;;15.73;9.40;;;;;;;;;;6103756;23;20022;-85
2023/12/14 16:18:33;;;;;;;18.27;9.80;;;;;;;;;;6093079;23;20037;-85
2023/12/14 16:21:02;;;;;;;15.70;9.85;;;;;;;;;;6077537;23;20022;-85
2023/12/14 16:23:27;;;;;;;16.95;10.20;;;;;;;;;;6094053;23;20018;-85
2023/12/14 16:25:58;;;;;;;15.95;10.02;;;;;;;;;;6115320;23;20406;-84
2023/12/14 16:28:26;;;;;;;19.60;10.25;;;;;;;;;;6068967;23;20762;-84
2023/12/14 16:30:52;;;;;;;20.92;10.52;;;;;;;;;;6071171;23;20073;-84
2023/12/14 16:33:17;;;;;;;16.35;9.98;;;;;;;;;;6093521;23;20030;-85
2023/12/14 16:35:42;;;;;;;16.33;9.63;;;;;;;;;;6093056;23;20481;-84
2023/12/14 16:38:08;;;;;;;18.52;10.13;;;;;;;;;;6082360;23;20021;-84
2023/12/14 16:40:33;;;;;;;14.98;9.05;;;;;;;;;;6092945;23;20014;-84
2023/12/14 16:42:59;;;;;;;15.18;9.70;;;;;;;;;;6090965;23;20014;-84
2023/12/14 16:45:31;;;;;;;17.50;10.27;;;;;;;;;;6056946;23;20376;-84
2023/12/14 16:47:56;;;;;;;15.32;9.63;;;;;;;;;;6069561;23;20448;-82
2023/12/14 16:50:34;;;;;;;17.00;10.13;;;;;;;;;;6077497;23;20122;-85
2023/12/14 16:52:59;;;;;;;16.73;10.30;;;;;;;;;;6078492;23;20085;-81
2023/12/14 16:55:27;;;;;;;15.85;10.18;;;;;;;;;;6057250;23;20092;-81
2023/12/14 16:57:53;;;;;;;16.00;10.38;;;;;;;;;;6091214;23;20041;-85
2023/12/14 17:00:18;;;;;;;17.65;10.00;;;;;;;;;;6078475;23;20018;-85
2023/12/14 17:02:47;;;;;;;17.27;10.90;;;;;;;;;;6083609;23;20020;-85
2023/12/14 17:05:12;;;;;;;15.15;9.43;;;;;;;;;;6075329;23;20022;-84
2023/12/14 17:07:40;;;;;;;16.30;10.35;;;;;;;;;;6088664;23;20021;-84
2023/12/14 17:10:06;;;;;;;15.15;9.23;;;;;;;;;;6091876;23;20080;-84
2023/12/14 17:12:32;;;;;;;16.20;9.77;;;;;;;;;;6102268;23;20013;-85
2023/12/14 17:14:57;;;;;;;18.60;10.63;;;;;;;;;;6076295;23;20513;-84
2023/12/14 17:17:26;;;;;;;16.52;10.27;;;;;;;;;;6055411;23;20022;-86
2023/12/14 17:19:54;;;;;;;16.27;10.15;;;;;;;;;;6093002;23;20014;-86
2023/12/14 17:22:19;;;;;;;16.23;9.85;;;;;;;;;;6066635;23;20022;-85
2023/12/14 17:24:45;;;;;;;17.48;10.07;;;;;;;;;;6091102;23;20073;-85
2023/12/14 17:27:13;;;;;;;16.35;9.85;;;;;;;;;;6073837;23;20531;-84
2023/12/14 17:29:39;;;;;;;17.88;9.85;;;;;;;;;;6065129;23;20021;-84
2023/12/14 17:32:04;;;;;;;15.68;9.88;;;;;;;;;;6071418;23;20040;-85
2023/12/14 17:34:30;;;;;;;15.57;10.00;;;;;;;;;;6096390;23;20373;-85
2023/12/14 17:36:56;;;;;;;16.38;9.85;;;;;;;;;;6060338;23;20022;-80
2023/12/14 17:39:24;;;;;;;17.35;10.40;;;;;;;;;;6076029;23;20084;-81
2023/12/14 17:41:51;;;;;;;18.95;9.82;;;;;;;;;;6111779;23;20014;-79
2023/12/14 17:44:17;;;;;;;15.10;9.57;;;;;;;;;;6090974;23;20025;-80
2023/12/14 17:46:48;;;;;;;16.15;9.07;;;;;;;;;;6079177;23;20010;-79
2023/12/14 17:49:13;;;;;;;13.48;8.57;;;;;;;;;;6055821;23;20021;-79
2023/12/14 17:51:41;;;;;;;14.57;8.70;;;;;;;;;;6070143;23;20017;-79
2023/12/14 17:54:26;;;;;;;14.30;8.93;;;;;;;;;;6053900;23;20025;-79